• Join FlightAware (Why Join?)
  • Login
  • US Flag 
03:58AM EST


 

Airport Tracker/Info


-or-


 

Live Flight TrackerFlight Track Log ✈ SWA3317 ✈ 07-Jun-2014 ✈ KMCO - KLAS

Flight Track Log - Related Links

Times and Time Zones

All times are in EDT time to prevent confusion due to time zone crossing. See the SWA3317 flight status page for this flight to view local times or setup timezone preferences in your user account.

Time Position Orientation Groundspeed Altitude Reporting Facility
EDT Latitude Longitude Course Direction KTS MPH feet Rate Location/Type
06:02PM 28.4500 -81.3167 360° North 182 209 1,100  Level Orlando TRACON
06:02PM 28.4833 -81.3167 360° North 190 219 2,100 1,620 Climbing Orlando TRACON
06:03PM 28.5500 -81.3167 360° North 259 298 3,800 2,340 Climbing Orlando TRACON
06:04PM 28.5833 -81.3833 300° West 279 321 6,800 2,460 Climbing Orlando TRACON
06:06PM 28.5689 -81.5664 265° West 292 336 11,200 2,160 Climbing Jacksonville Center
06:07PM 28.5575 -81.6778 263° West 317 365 13,400 2,340 Climbing Jacksonville Center
06:08PM 28.5439 -81.7936 262° West 358 412 15,900 2,220 Climbing Jacksonville Center
06:09PM 28.5281 -81.9119 261° West 373 429 17,900 1,860 Climbing Jacksonville Center
06:10PM 28.5164 -82.0350 264° West 390 449 19,700 1,620 Climbing Jacksonville Center
06:11PM 28.4983 -82.1533 260° West 410 472 21,200 1,620 Climbing Jacksonville Center
06:12PM 28.4844 -82.2856 263° West 422 486 23,000 1,680 Climbing Jacksonville Center
06:13PM 28.4725 -82.4203 264° West 428 493 24,600 1,320 Climbing Jacksonville Center
06:14PM 28.4625 -82.5572 265° West 433 498 25,700 1,080 Climbing Jacksonville Center
06:15PM 28.5336 -82.6681 306° West 409 471 26,800 1,140 Climbing Jacksonville Center
06:16PM 28.6422 -82.7506 326° Northwest 421 484 28,000 1,320 Climbing Jacksonville Center
06:17PM 28.7467 -82.8358 324° Northwest 438 504 29,500 1,500 Climbing Jacksonville Center
06:18PM 28.8469 -82.9233 323° Northwest 455 524 31,000 1,380 Climbing Jacksonville Center
06:19PM 28.9450 -83.0136 321° Northwest 460 529 32,300 1,200 Climbing Jacksonville Center
06:20PM 28.9992 -83.1467 295° West 448 516 33,400 1,140 Climbing Jacksonville Center
06:21PM 29.0467 -83.2750 293° West 448 516 34,600 900 Climbing Jacksonville Center
06:22PM 29.0964 -83.4083 293° West 449 517 35,300 660 Climbing Jacksonville Center
06:23PM 29.1417 -83.5417 291° West 454 522 36,000 300 Climbing Jacksonville Center
06:24PM 29.1911 -83.6750 293° West 454 522 36,000  Level Jacksonville Center
06:25PM 29.2361 -83.8064 291° West 454 522 36,000  Level Jacksonville Center
06:26PM 29.2831 -83.9400 292° West 454 522 36,000  Level Jacksonville Center
06:27PM 29.3300 -84.0717 292° West 454 522 36,000  Level Jacksonville Center
06:28PM 29.3747 -84.2033 291° West 449 517 36,000  Level Jacksonville Center
06:29PM 29.4211 -84.3350 292° West 449 517 36,000  Level Jacksonville Center
06:30PM 29.4675 -84.4789 290° West 449 517 36,000  Level Jacksonville Center
06:31PM 29.5119 -84.5989 293° West 443 510 36,000  Level Jacksonville Center
06:32PM 29.5561 -84.7286 291° West 443 510 36,000  Level Jacksonville Center
06:33PM 29.6019 -84.8608 292° West 443 510 36,000  Level Jacksonville Center
06:34PM 29.6458 -84.9931 291° West 443 510 36,000  Level Jacksonville Center
06:35PM 29.6956 -85.1375 292° West 448 516 36,000  Level Jacksonville Center
06:36PM 29.7411 -85.2725 291° West 454 522 36,000  Level Jacksonville Center
06:37PM 29.7867 -85.4053 292° West 454 522 36,000  Level Jacksonville Center
06:38PM 29.8297 -85.5428 290° West 454 522 36,000  Level Jacksonville Center
06:39PM 29.8750 -85.6783 291° West 454 522 36,000  Level Jacksonville Center
06:40PM 29.9219 -85.8114 292° West 454 522 36,000  Level Jacksonville Center
06:41PM 29.9669 -85.9469 291° West 454 522 36,000  Level Jacksonville Center
06:42PM 30.0117 -86.0828 291° West 454 522 36,000  Level Jacksonville Center
06:43PM 30.0583 -86.2161 292° West 454 522 36,000  Level Jacksonville Center
06:44PM 30.1006 -86.3569 289° West 454 522 36,000  Level Jacksonville Center
06:45PM 30.1342 -86.4950 286° West 454 522 36,000  Level Jacksonville Center
06:46PM 30.1658 -86.6331 285° West 448 516 36,000  Level Jacksonville Center
06:47PM 30.1992 -86.7736 285° West 448 516 36,000  Level Jacksonville Center
06:48PM 30.2492 -86.9056 294° West 448 516 36,000  Level Jacksonville Center
06:49PM 30.3017 -87.0306 296° West 443 510 36,000  Level Jacksonville Center
06:50PM 30.3536 -87.1603 295° West 443 510 36,000  Level Jacksonville Center
06:51PM 30.4036 -87.2925 294° West 443 510 36,000  Level Jacksonville Center
06:52PM 30.4575 -87.4228 296° West 443 510 36,000  Level Jacksonville Center
06:53PM 30.5089 -87.5553 294° West 443 510 36,000  Level Jacksonville Center
06:54PM 30.5394 -87.6289 296° West 448 516 36,000  Level Houston Center
06:55PM 30.5903 -87.7597 294° West 448 516 36,000  Level Houston Center
06:56PM 30.6411 -87.8903 294° West 445 512 36,000  Level Houston Center
06:57PM 30.6986 -88.0386 294° West 444 511 36,000  Level Houston Center
06:58PM 30.7489 -88.1681 294° West 443 510 36,000  Level Houston Center
06:59PM 30.7975 -88.2972 294° West 442 509 36,000  Level Houston Center
07:00PM 30.8475 -88.4253 294° West 439 505 36,000  Level Houston Center
07:01PM 30.8989 -88.5547 295° West 438 504 36,000  Level Houston Center
07:02PM 30.9539 -88.7011 294° West 437 503 36,000  Level Houston Center
07:03PM 31.0042 -88.8311 294° West 438 504 36,000  Level Houston Center
07:04PM 31.0581 -88.9706 294° West 440 506 36,000  Level Houston Center
07:05PM 31.1072 -89.1017 294° West 443 510 36,000  Level Houston Center
07:06PM 31.1561 -89.2317 294° West 441 507 36,000  Level Houston Center
07:07PM 31.2058 -89.3633 294° West 445 512 36,000  Level Houston Center
07:08PM 31.2544 -89.4928 294° West 442 509 36,000  Level Houston Center
07:09PM 31.3033 -89.6211 294° West 439 505 36,000  Level Houston Center
07:10PM 31.3597 -89.7756 293° West 435 501 36,000  Level Houston Center
07:11PM 31.4083 -89.9039 294° West 434 499 36,000  Level Houston Center
07:13PM 31.4553 -90.0333 293° West 434 499 36,000  Level Houston Center
07:14PM 31.5031 -90.1628 293° West 434 499 36,000  Level Houston Center
07:15PM 31.5506 -90.2925 293° West 435 501 36,000  Level Houston Center
07:16PM 31.5983 -90.4225 293° West 435 501 36,000  Level Houston Center
07:18PM 31.7025 -90.7117 293° West 437 503 36,000  Level Houston Center
07:19PM 31.7497 -90.8436 293° West 437 503 36,000  Level Houston Center
07:20PM 31.7969 -90.9742 293° West 438 504 36,000  Level Houston Center
07:20PM 31.8286 -91.0625 293° West 438 504 36,000  Level Houston Center
07:22PM 31.9122 -91.2975 293° West 437 503 36,000  Level Houston Center
07:23PM 31.9606 -91.4289 293° West 437 503 36,000  Level Houston Center
07:24PM 32.0378 -91.5417 309° West 441 507 36,000  Level Houston Center
07:25PM 32.1147 -91.6531 309° West 442 509 36,000  Level Houston Center
07:26PM 32.1958 -91.7622 311° West 443 510 36,000  Level Houston Center
07:27PM 32.3081 -91.8772 319° Northwest 447 514 36,000  Level Houston Center
07:28PM 32.3892 -91.9592 320° Northwest 445 512 36,000  Level Memphis Center
07:29PM 32.4406 -92.0125 319° Northwest 446 513 36,000  Level Fort Worth Center
07:30PM 32.5008 -92.1353 300° West 438 504 36,000  Level Fort Worth Center
07:31PM 32.5422 -92.3000 287° West 438 504 36,000  Level Fort Worth Center
07:32PM 32.5767 -92.4361 287° West 436 502 36,000  Level Fort Worth Center
07:33PM 32.6133 -92.5800 287° West 435 501 36,000  Level Fort Worth Center
07:34PM 32.6492 -92.7153 287° West 435 501 36,000  Level Fort Worth Center
07:35PM 32.6828 -92.8525 286° West 435 501 36,000  Level Fort Worth Center
07:37PM 32.7350 -93.0625 287° West 433 498 36,000  Level Houston Center
07:37PM 32.7511 -93.1258 287° West 433 498 36,000  Level Fort Worth Center
07:38PM 32.7856 -93.2625 287° West 431 496 36,000  Level Fort Worth Center
07:39PM 32.8189 -93.3961 287° West 428 493 36,000  Level Fort Worth Center
07:40PM 32.8592 -93.5597 286° West 427 491 36,000  Level Fort Worth Center
07:41PM 32.8928 -93.6958 286° West 427 491 36,000  Level Fort Worth Center
07:43PM 32.9592 -93.9703 286° West 428 493 36,000  Level Fort Worth Center
07:44PM 32.9928 -94.1083 286° West 428 493 36,000  Level Fort Worth Center
07:45PM 33.0256 -94.2467 286° West 429 494 36,000  Level Fort Worth Center
07:46PM 33.0594 -94.3831 287° West 427 491 36,000  Level Fort Worth Center
07:47PM 33.0919 -94.5219 286° West 430 495 36,000  Level Fort Worth Center
07:48PM 33.1322 -94.6864 286° West 429 494 36,000  Level Fort Worth Center
07:49PM 33.1647 -94.8236 286° West 429 494 36,000  Level Fort Worth Center
07:50PM 33.1961 -94.9597 285° West 427 491 36,000  Level Fort Worth Center
07:51PM 33.2281 -95.0975 286° West 428 493 36,000  Level Fort Worth Center
07:53PM 33.2603 -95.2328 286° West 427 491 36,000  Level Fort Worth Center
07:54PM 33.2883 -95.3681 284° West 424 488 36,000  Level Fort Worth Center
07:55PM 33.3211 -95.5022 286° West 420 483 36,000  Level Fort Worth Center
07:56PM 33.3567 -95.6478 286° West 419 482 36,000  Level Fort Worth Center
07:57PM 33.3869 -95.7803 285° West 418 481 36,000  Level Fort Worth Center
07:58PM 33.4164 -95.9114 285° West 415 478 36,000  Level Fort Worth Center
07:59PM 33.4506 -96.0717 284° West 415 478 36,000  Level Fort Worth Center
08:00PM 33.4806 -96.2025 285° West 411 473 36,000  Level Fort Worth Center
08:01PM 33.5100 -96.3344 285° West 413 475 36,000  Level Fort Worth Center
08:02PM 33.5389 -96.4658 285° West 411 473 36,000  Level Fort Worth Center
08:03PM 33.5678 -96.5983 285° West 413 475 36,000  Level Fort Worth Center
08:04PM 33.6025 -96.7567 285° West 411 473 36,000  Level Fort Worth Center
08:05PM 33.6306 -96.8864 285° West 409 471 36,000  Level Fort Worth Center
08:06PM 33.6594 -97.0172 285° West 407 468 36,000  Level Fort Worth Center
08:07PM 33.6861 -97.1478 284° West 406 467 36,000  Level Fort Worth Center
08:08PM 33.7144 -97.2769 285° West 406 467 36,000  Level Fort Worth Center
08:09PM 33.7422 -97.4075 284° West 406 467 36,000  Level Fort Worth Center
08:10PM 33.7747 -97.5614 284° West 401 461 36,000  Level Fort Worth Center
08:11PM 33.8011 -97.6908 284° West 401 461 36,000  Level Fort Worth Center
08:12PM 33.8289 -97.8192 285° West 399 459 36,000  Level Fort Worth Center
08:13PM 33.8550 -97.9483 284° West 399 459 36,000  Level Fort Worth Center
08:14PM 33.8811 -98.0781 284° West 399 459 36,000  Level Fort Worth Center
08:15PM 33.9078 -98.2050 284° West 399 459 36,000  Level Fort Worth Center
08:16PM 33.9531 -98.3533 290° West 399 459 36,000  Level Fort Worth Center
08:17PM 33.9983 -98.4731 295° West 396 456 36,000  Level Fort Worth Center
08:18PM 34.0461 -98.5931 296° West 396 456 36,000  Level Fort Worth Center
08:19PM 34.0950 -98.7156 296° West 396 456 36,000  Level Fort Worth Center
08:20PM 34.1408 -98.8328 295° West 397 457 36,000  Level Fort Worth Center
08:21PM 34.1900 -98.9553 296° West 395 455 36,000  Level Fort Worth Center
08:22PM 34.2381 -99.0750 296° West 394 453 36,000  Level Fort Worth Center
08:23PM 34.2925 -99.2100 296° West 392 451 36,000  Level Fort Worth Center
08:24PM 34.3408 -99.3283 296° West 392 451 36,000  Level Fort Worth Center
08:26PM 34.3936 -99.4525 297° West 391 450 36,000  Level Fort Worth Center
08:27PM 34.4428 -99.5692 297° West 387 445 36,000  Level Fort Worth Center
08:28PM 34.4725 -99.6953 286° West 391 450 36,000  Level Fort Worth Center
08:29PM 34.4956 -99.8150 283° West 390 449 36,000  Level Fort Worth Center
08:30PM 34.5019 -99.9706 273° West 389 448 36,000  Level Fort Worth Center
08:30PM 34.5031 -100.0222 272° West 388 447 36,000  Level Fort Worth Center
08:31PM 34.5042 -100.1525 271° West 387 445 36,000  Level Fort Worth Center
08:33PM 34.5058 -100.4094 271° West 386 444 36,000  Level Albuquerque Center
08:34PM 34.5064 -100.5392 270° West 385 443 36,000  Level Albuquerque Center
08:35PM 34.5072 -100.6656 270° West 383 441 36,000  Level Albuquerque Center
08:36PM 34.5075 -100.7953 270° West 382 440 36,000  Level Albuquerque Center
08:37PM 34.5069 -100.9233 270° West 382 440 36,000  Level Albuquerque Center
08:38PM 34.5083 -101.0522 271° West 382 440 36,000  Level Albuquerque Center
08:39PM 34.5078 -101.2078 270° West 382 440 36,000  Level Fort Worth Center
08:40PM 34.5069 -101.3389 270° West 384 442 36,000  Level Fort Worth Center
08:41PM 34.5067 -101.4681 270° West 384 442 36,000  Level Fort Worth Center
08:42PM 34.5064 -101.5983 270° West 385 443 36,000  Level Fort Worth Center
08:43PM 34.5061 -101.7264 270° West 384 442 36,000  Level Fort Worth Center
08:44PM 34.5053 -101.8561 270° West 384 442 36,000  Level Fort Worth Center
08:45PM 34.5044 -101.9853 270° West 384 442 36,000  Level Fort Worth Center
08:46PM 34.5033 -102.1397 270° West 383 441 36,000  Level Fort Worth Center
08:48PM 34.5025 -102.2683 270° West 382 440 36,000  Level Fort Worth Center
08:49PM 34.5011 -102.3964 269° West 382 440 36,000  Level Fort Worth Center
08:49PM 34.5017 -102.4969 270° West 381 438 36,000  Level Albuquerque Center
08:50PM 34.5025 -102.6239 270° West 380 437 36,000  Level Albuquerque Center
08:52PM 34.5039 -102.7744 271° West 377 434 36,000  Level Albuquerque Center
08:53PM 34.5053 -102.9036 271° West 377 434 36,000  Level Albuquerque Center
08:54PM 34.5061 -103.0289 270° West 376 433 36,000  Level Albuquerque Center
08:55PM 34.5072 -103.1556 271° West 374 430 36,000  Level Albuquerque Center
08:56PM 34.4978 -103.2828 265° West 374 430 36,000  Level Albuquerque Center
08:57PM 34.4958 -103.4094 269° West 374 430 36,000  Level Albuquerque Center
08:58PM 34.4925 -103.5414 268° West 383 441 36,000  Level Albuquerque Center
08:59PM 34.5050 -103.6736 277° West 388 447 36,000  Level Albuquerque Center
09:00PM 34.5183 -103.8064 277° West 388 447 36,000  Level Albuquerque Center
09:01PM 34.5369 -103.9372 280° West 388 447 36,000  Level Albuquerque Center
09:02PM 34.5617 -104.0672 283° West 389 448 36,000  Level Albuquerque Center
09:03PM 34.5861 -104.1967 283° West 389 448 36,000  Level Albuquerque Center
09:04PM 34.6097 -104.3256 283° West 389 448 36,000 300 Level Albuquerque Center
09:05PM 34.6339 -104.4556 283° West 389 448 36,700 840 Climbing Albuquerque Center
09:06PM 34.6578 -104.5864 283° West 390 449 37,800 600 Climbing Albuquerque Center
09:07PM 34.6811 -104.7142 283° West 388 447 38,000 60 Climbing Albuquerque Center
09:08PM 34.7053 -104.8461 283° West 389 448 38,000  Level Albuquerque Center
09:09PM 34.7297 -104.9786 283° West 393 452 38,000  Level Albuquerque Center
09:10PM 34.7531 -105.1122 282° West 398 458 38,000  Level Albuquerque Center
09:11PM 34.7767 -105.2439 282° West 398 458 38,000  Level Albuquerque Center
09:12PM 34.8042 -105.3964 282° West 396 456 38,000  Level Albuquerque Center
09:13PM 34.8267 -105.5258 282° West 392 451 38,000  Level Albuquerque Center
09:14PM 34.8492 -105.6550 282° West 391 450 38,000  Level Albuquerque Center
09:15PM 34.8711 -105.7842 282° West 391 450 38,000  Level Albuquerque Center
09:16PM 34.8928 -105.9136 282° West 391 450 38,000  Level Albuquerque Center
09:17PM 34.9150 -106.0444 282° West 391 450 38,000  Level Albuquerque Center
09:18PM 34.9364 -106.1731 282° West 389 448 38,000  Level Albuquerque Center
09:19PM 34.9586 -106.3025 282° West 389 448 38,000  Level Albuquerque Center
09:20PM 34.9800 -106.4325 281° West 389 448 38,000  Level Albuquerque Center
09:21PM 35.0011 -106.5600 281° West 386 444 38,000  Level Albuquerque Center
09:22PM 35.0225 -106.6881 282° West 386 444 38,000  Level Albuquerque Center
09:23PM 35.0439 -106.8175 281° West 386 444 38,000  Level Albuquerque Center
09:24PM 35.0744 -106.9581 285° West 386 444 38,000  Level Albuquerque Center
09:25PM 35.1042 -107.0939 285° West 386 444 38,000  Level Albuquerque Center
09:26PM 35.1325 -107.2194 285° West 389 448 38,000  Level Albuquerque Center
09:27PM 35.1581 -107.3375 285° West 381 438 38,000  Level Albuquerque Center
09:28PM 35.1878 -107.4733 285° West 371 427 38,000  Level Albuquerque Center
09:29PM 35.2097 -107.5958 282° West 384 442 38,000  Level Albuquerque Center
09:30PM 35.2308 -107.7125 283° West 375 432 38,000  Level Albuquerque Center
09:31PM 35.2403 -107.8556 275° West 375 432 38,000  Level Albuquerque Center
09:32PM 35.2514 -107.9756 277° West 375 432 38,000  Level Albuquerque Center
09:33PM 35.2633 -108.0950 277° West 372 428 38,000  Level Albuquerque Center
09:34PM 35.2758 -108.2342 276° West 369 425 38,000  Level Albuquerque Center
09:35PM 35.2861 -108.3542 276° West 369 425 38,000  Level Albuquerque Center
09:36PM 35.2986 -108.4939 276° West 369 425 38,000  Level Albuquerque Center
09:37PM 35.3089 -108.6139 276° West 369 425 38,000  Level Albuquerque Center
09:38PM 35.3194 -108.7347 276° West 369 425 38,000  Level Albuquerque Center
09:39PM 35.3308 -108.8775 276° West 370 426 38,000  Level Albuquerque Center
09:40PM 35.3411 -109.0003 276° West 373 429 38,000  Level Albuquerque Center
09:42PM 35.3514 -109.1239 276° West 375 432 38,000  Level Albuquerque Center
09:43PM 35.3631 -109.2689 276° West 377 434 38,000  Level Albuquerque Center
09:44PM 35.3733 -109.3939 276° West 380 437 38,000  Level Albuquerque Center
09:45PM 35.3833 -109.5167 276° West 381 438 38,000  Level Albuquerque Center
09:46PM 35.3928 -109.6594 275° West 380 437 38,000  Level Albuquerque Center
09:47PM 35.4022 -109.7819 275° West 378 435 38,000  Level Albuquerque Center
09:48PM 35.4106 -109.9033 275° West 377 434 38,000  Level Albuquerque Center
09:49PM 35.4206 -110.0453 275° West 376 433 38,000  Level Albuquerque Center
09:50PM 35.4283 -110.1669 275° West 376 433 38,000  Level Albuquerque Center
09:51PM 35.4383 -110.3069 275° West 375 432 38,000  Level Albuquerque Center
09:52PM 35.4469 -110.4272 275° West 373 429 38,000  Level Albuquerque Center
09:53PM 35.4542 -110.5481 274° West 373 429 38,000  Level Albuquerque Center
09:54PM 35.4628 -110.6900 274° West 373 429 38,000 -240 Level Albuquerque Center
09:55PM 35.4733 -110.8147 276° West 376 433 37,600 -720 Descending Albuquerque Center
09:56PM 35.4803 -110.9383 274° West 377 434 36,600 -1,200 Descending Albuquerque Center
09:57PM 35.4892 -111.0817 274° West 377 434 35,200 -1,380 Descending Albuquerque Center
09:58PM 35.4983 -111.2058 275° West 378 435 33,900 -1,200 Descending Albuquerque Center
09:59PM 35.5061 -111.3311 274° West 380 437 32,800 -1,140 Descending Albuquerque Center
10:00PM 35.5153 -111.4600 275° West 383 441 31,700 -1,140 Descending Albuquerque Center
10:01PM 35.5228 -111.5878 274° West 382 440 30,500 -840 Descending Albuquerque Center
10:02PM 35.5297 -111.7147 274° West 379 436 30,000 -300 Descending Albuquerque Center
10:03PM 35.5389 -111.8781 274° West 393 452 30,000 -120 Level Albuquerque Center
10:04PM 35.5472 -112.0233 274° West 416 479 29,800 -600 Descending Albuquerque Center
10:05PM 35.5547 -112.1667 274° West 420 483 28,800 -960 Descending Albuquerque Center
10:06PM 35.5639 -112.3114 274° West 424 488 28,000 -420 Descending Los Angeles Center
10:07PM 35.5714 -112.4589 274° West 428 493 28,000  Level Los Angeles Center
10:08PM 35.5800 -112.6061 274° West 432 497 28,000  Level Los Angeles Center
10:09PM 35.5881 -112.7581 274° West 434 499 28,000  Level Los Angeles Center
10:10PM 35.5947 -112.9078 273° West 437 503 28,000 -600 Level Los Angeles Center
10:11PM 35.6025 -113.0711 273° West 436 502 26,900 -1,080 Descending Los Angeles Center
10:12PM 35.6097 -113.2178 274° West 434 499 25,900 -1,080 Descending Los Angeles Center
10:13PM 35.6167 -113.3664 273° West 433 498 24,800 -1,080 Descending Los Angeles Center
10:14PM 35.6236 -113.5122 273° West 433 498 23,800 -1,020 Descending Los Angeles Center
10:15PM 35.6403 -113.6550 278° West 428 493 22,800 -1,320 Descending Los Angeles Center
10:16PM 35.6611 -113.7994 280° West 428 493 21,200 -2,100 Descending Los Angeles Center
10:17PM 35.6811 -113.9389 280° West 423 487 18,500 -2,760 Descending Los Angeles Center
10:18PM 35.7008 -114.0758 280° West 414 476 15,600 -2,880 Descending Los Angeles Center
10:19PM 35.7069 -114.1306 278° West 407 468 14,600 -2,460 Descending Los Angeles Center
10:19PM 35.7189 -114.2114 280° West 404 465 13,100 -1,500 Descending Los Angeles Center
10:20PM 35.7358 -114.3372 279° West 382 440 12,100 -900 Descending Los Angeles Center
10:21PM 35.8139 -114.4197 319° Northwest 344 396 11,300 -900 Descending Los Angeles Center
10:22PM 35.8967 -114.4408 348° North 312 359 10,300 -660 Descending Los Angeles Center
10:23PM 35.9783 -114.4481 356° North 294 338 10,000 -480 Descending Los Angeles Center
10:24PM 36.0553 -114.4564 355° North 285 328 9,400 -1,020 Descending Los Angeles Center
10:25PM 36.1258 -114.5028 332° Northwest 294 338 8,000 -720 Descending Los Angeles Center
10:26PM 36.1775 -114.5756 311° West 287 330 8,000  Level Los Angeles Center
10:27PM 36.1892 -114.6003 300° West 287 330 8,000  Level Los Angeles Center
10:27PM 36.2044 -114.6647 286° West 292 336 8,000  Level Los Angeles Center
10:28PM 36.1983 -114.6906 254° West 282 325 8,000  Level Los Angeles Center
10:28PM 36.1847 -114.7500 254° West 261 300 8,000  Level Los Angeles Center
10:29PM 36.1644 -114.8278 252° West 244 281 8,000 -600 Level Los Angeles Center
10:30PM 36.1447 -114.9094 253° West 217 250 6,800 -1,140 Descending Los Angeles Center
10:31PM 36.1325 -114.9767 257° West 206 237 5,700 -1,260 Descending Los Angeles Center
10:32PM 36.1367 -115.0475 274° West 196 226 4,300 -1,200 Descending Los Angeles Center
10:33PM 36.1361 -115.1058 269° West 169 194 3,300 -960 Descending Los Angeles Center
10:35PM 36.1081 -115.1475 230° Southwest 160 184 2,400 -900 Descending Los Angeles Center
10:37PM 36.0801 -115.1523 251° West  Level Estimated